sensor_id;sensor_type;location;lat;lon;timestamp;P1;durP1;ratioP1;P2;durP2;ratioP2
4272;SDS011;63887;53.656;9.810;2023-04-08T00:01:39;25.90;;;15.87;;
4272;SDS011;63887;53.656;9.810;2023-04-08T00:04:05;29.03;;;15.60;;
4272;SDS011;63887;53.656;9.810;2023-04-08T00:06:33;20.93;;;14.37;;
4272;SDS011;63887;53.656;9.810;2023-04-08T00:09:01;25.43;;;14.80;;
4272;SDS011;63887;53.656;9.810;2023-04-08T00:11:28;28.93;;;15.07;;
4272;SDS011;63887;53.656;9.810;2023-04-08T00:13:55;22.20;;;14.20;;
4272;SDS011;63887;53.656;9.810;2023-04-08T00:16:21;28.43;;;15.47;;
4272;SDS011;63887;53.656;9.810;2023-04-08T00:18:48;20.83;;;14.60;;
4272;SDS011;63887;53.656;9.810;2023-04-08T00:21:15;19.97;;;14.07;;
4272;SDS011;63887;53.656;9.810;2023-04-08T00:23:42;22.70;;;15.00;;
4272;SDS011;63887;53.656;9.810;2023-04-08T00:26:08;25.10;;;15.07;;
4272;SDS011;63887;53.656;9.810;2023-04-08T00:28:36;26.07;;;15.00;;
4272;SDS011;63887;53.656;9.810;2023-04-08T00:31:02;29.10;;;14.03;;
4272;SDS011;63887;53.656;9.810;2023-04-08T00:33:29;25.50;;;15.20;;
4272;SDS011;63887;53.656;9.810;2023-04-08T00:35:56;21.40;;;15.20;;
4272;SDS011;63887;53.656;9.810;2023-04-08T00:38:23;20.43;;;14.90;;
4272;SDS011;63887;53.656;9.810;2023-04-08T00:40:49;22.70;;;13.80;;
4272;SDS011;63887;53.656;9.810;2023-04-08T00:43:16;21.17;;;14.57;;
4272;SDS011;63887;53.656;9.810;2023-04-08T00:45:46;36.50;;;14.33;;
4272;SDS011;63887;53.656;9.810;2023-04-08T00:48:12;17.87;;;14.30;;
4272;SDS011;63887;53.656;9.810;2023-04-08T00:50:39;21.20;;;14.70;;
4272;SDS011;63887;53.656;9.810;2023-04-08T00:53:07;23.43;;;14.87;;
4272;SDS011;63887;53.656;9.810;2023-04-08T00:55:34;27.77;;;15.03;;
4272;SDS011;63887;53.656;9.810;2023-04-08T00:58:00;26.17;;;15.30;;
4272;SDS011;63887;53.656;9.810;2023-04-08T01:00:27;20.37;;;13.70;;
4272;SDS011;63887;53.656;9.810;2023-04-08T01:02:58;25.47;;;13.90;;
4272;SDS011;63887;53.656;9.810;2023-04-08T01:05:34;28.20;;;16.40;;
4272;SDS011;63887;53.656;9.810;2023-04-08T01:08:05;29.53;;;14.30;;
4272;SDS011;63887;53.656;9.810;2023-04-08T01:10:33;21.00;;;14.03;;
4272;SDS011;63887;53.656;9.810;2023-04-08T01:13:03;22.63;;;13.57;;
4272;SDS011;63887;53.656;9.810;2023-04-08T01:15:32;20.80;;;15.07;;
4272;SDS011;63887;53.656;9.810;2023-04-08T01:18:06;22.23;;;15.77;;
4272;SDS011;63887;53.656;9.810;2023-04-08T01:20:34;21.43;;;16.00;;
4272;SDS011;63887;53.656;9.810;2023-04-08T01:23:04;27.00;;;17.70;;
4272;SDS011;63887;53.656;9.810;2023-04-08T01:25:38;23.40;;;15.43;;
4272;SDS011;63887;53.656;9.810;2023-04-08T01:28:06;45.13;;;17.17;;
4272;SDS011;63887;53.656;9.810;2023-04-08T01:30:37;28.47;;;16.90;;
4272;SDS011;63887;53.656;9.810;2023-04-08T01:33:04;27.40;;;16.50;;
4272;SDS011;63887;53.656;9.810;2023-04-08T01:35:31;24.43;;;16.30;;
4272;SDS011;63887;53.656;9.810;2023-04-08T01:37:58;24.43;;;16.70;;
4272;SDS011;63887;53.656;9.810;2023-04-08T01:40:26;30.70;;;17.77;;
4272;SDS011;63887;53.656;9.810;2023-04-08T01:42:53;30.67;;;17.97;;
4272;SDS011;63887;53.656;9.810;2023-04-08T01:45:23;34.63;;;17.43;;
4272;SDS011;63887;53.656;9.810;2023-04-08T01:47:50;32.67;;;18.77;;
4272;SDS011;63887;53.656;9.810;2023-04-08T01:50:18;28.50;;;16.33;;
4272;SDS011;63887;53.656;9.810;2023-04-08T01:52:46;35.83;;;17.07;;
4272;SDS011;63887;53.656;9.810;2023-04-08T01:55:14;26.23;;;17.63;;
4272;SDS011;63887;53.656;9.810;2023-04-08T01:57:43;27.60;;;17.17;;
4272;SDS011;63887;53.656;9.810;2023-04-08T02:00:13;31.17;;;17.80;;
4272;SDS011;63887;53.656;9.810;2023-04-08T02:02:44;28.83;;;17.97;;
4272;SDS011;63887;53.656;9.810;2023-04-08T02:05:12;38.47;;;20.20;;
4272;SDS011;63887;53.656;9.810;2023-04-08T02:07:38;25.53;;;19.37;;
4272;SDS011;63887;53.656;9.810;2023-04-08T02:10:05;29.20;;;18.70;;
4272;SDS011;63887;53.656;9.810;2023-04-08T02:12:32;27.83;;;17.70;;
4272;SDS011;63887;53.656;9.810;2023-04-08T02:14:59;32.03;;;19.50;;
4272;SDS011;63887;53.656;9.810;2023-04-08T02:17:28;33.60;;;19.00;;
4272;SDS011;63887;53.656;9.810;2023-04-08T02:20:04;38.17;;;18.83;;
4272;SDS011;63887;53.656;9.810;2023-04-08T02:22:36;36.20;;;17.10;;
4272;SDS011;63887;53.656;9.810;2023-04-08T02:25:07;27.23;;;18.63;;
4272;SDS011;63887;53.656;9.810;2023-04-08T02:27:36;31.33;;;19.97;;
4272;SDS011;63887;53.656;9.810;2023-04-08T02:30:05;28.17;;;18.83;;
4272;SDS011;63887;53.656;9.810;2023-04-08T02:32:33;29.90;;;17.47;;
4272;SDS011;63887;53.656;9.810;2023-04-08T02:35:01;30.03;;;18.00;;
4272;SDS011;63887;53.656;9.810;2023-04-08T02:37:30;26.50;;;17.67;;
4272;SDS011;63887;53.656;9.810;2023-04-08T02:39:57;25.93;;;16.37;;
4272;SDS011;63887;53.656;9.810;2023-04-08T02:42:24;25.53;;;15.10;;
4272;SDS011;63887;53.656;9.810;2023-04-08T02:44:50;21.60;;;15.03;;
4272;SDS011;63887;53.656;9.810;2023-04-08T02:47:17;28.13;;;16.80;;
4272;SDS011;63887;53.656;9.810;2023-04-08T02:49:43;27.67;;;17.30;;
4272;SDS011;63887;53.656;9.810;2023-04-08T02:52:11;30.93;;;21.10;;
4272;SDS011;63887;53.656;9.810;2023-04-08T02:54:38;28.10;;;18.30;;
4272;SDS011;63887;53.656;9.810;2023-04-08T02:57:04;29.87;;;16.97;;
4272;SDS011;63887;53.656;9.810;2023-04-08T02:59:31;22.57;;;17.67;;
4272;SDS011;63887;53.656;9.810;2023-04-08T03:01:57;27.00;;;16.63;;
4272;SDS011;63887;53.656;9.810;2023-04-08T03:04:23;27.33;;;17.03;;
4272;SDS011;63887;53.656;9.810;2023-04-08T03:06:50;22.77;;;17.60;;
4272;SDS011;63887;53.656;9.810;2023-04-08T03:09:18;30.50;;;17.37;;
4272;SDS011;63887;53.656;9.810;2023-04-08T03:11:44;29.93;;;15.70;;
4272;SDS011;63887;53.656;9.810;2023-04-08T03:14:16;32.70;;;17.80;;
4272;SDS011;63887;53.656;9.810;2023-04-08T03:16:42;28.10;;;17.30;;
4272;SDS011;63887;53.656;9.810;2023-04-08T03:19:09;25.83;;;17.07;;
4272;SDS011;63887;53.656;9.810;2023-04-08T03:21:35;25.33;;;15.80;;
4272;SDS011;63887;53.656;9.810;2023-04-08T03:24:02;32.67;;;17.80;;
4272;SDS011;63887;53.656;9.810;2023-04-08T03:26:30;30.37;;;18.43;;
4272;SDS011;63887;53.656;9.810;2023-04-08T03:28:56;25.83;;;17.60;;
4272;SDS011;63887;53.656;9.810;2023-04-08T03:31:23;24.73;;;18.00;;
4272;SDS011;63887;53.656;9.810;2023-04-08T03:33:49;25.10;;;16.63;;
4272;SDS011;63887;53.656;9.810;2023-04-08T03:36:16;30.33;;;18.17;;
4272;SDS011;63887;53.656;9.810;2023-04-08T03:38:43;28.83;;;18.33;;
4272;SDS011;63887;53.656;9.810;2023-04-08T03:41:09;28.93;;;19.37;;
4272;SDS011;63887;53.656;9.810;2023-04-08T03:43:37;28.33;;;16.83;;
4272;SDS011;63887;53.656;9.810;2023-04-08T03:46:04;34.60;;;18.20;;
4272;SDS011;63887;53.656;9.810;2023-04-08T03:48:30;26.53;;;17.63;;
4272;SDS011;63887;53.656;9.810;2023-04-08T03:50:57;37.83;;;18.67;;
4272;SDS011;63887;53.656;9.810;2023-04-08T03:53:23;35.70;;;20.87;;
4272;SDS011;63887;53.656;9.810;2023-04-08T03:55:52;32.50;;;19.30;;
4272;SDS011;63887;53.656;9.810;2023-04-08T03:58:18;39.20;;;20.37;;
4272;SDS011;63887;53.656;9.810;2023-04-08T04:00:46;31.03;;;20.10;;
4272;SDS011;63887;53.656;9.810;2023-04-08T04:03:12;32.33;;;19.03;;
4272;SDS011;63887;53.656;9.810;2023-04-08T04:05:39;35.57;;;24.03;;
4272;SDS011;63887;53.656;9.810;2023-04-08T04:08:06;33.10;;;19.40;;
4272;SDS011;63887;53.656;9.810;2023-04-08T04:10:33;31.08;;;18.77;;
4272;SDS011;63887;53.656;9.810;2023-04-08T04:12:59;41.97;;;21.77;;
4272;SDS011;63887;53.656;9.810;2023-04-08T04:15:26;37.47;;;21.30;;
4272;SDS011;63887;53.656;9.810;2023-04-08T04:17:54;32.17;;;21.10;;
4272;SDS011;63887;53.656;9.810;2023-04-08T04:20:20;30.87;;;20.20;;
4272;SDS011;63887;53.656;9.810;2023-04-08T04:22:47;30.33;;;20.30;;
4272;SDS011;63887;53.656;9.810;2023-04-08T04:25:13;34.47;;;21.63;;
4272;SDS011;63887;53.656;9.810;2023-04-08T04:27:40;32.40;;;19.00;;
4272;SDS011;63887;53.656;9.810;2023-04-08T04:30:06;31.87;;;19.60;;
4272;SDS011;63887;53.656;9.810;2023-04-08T04:32:34;38.67;;;18.70;;
4272;SDS011;63887;53.656;9.810;2023-04-08T04:35:02;30.80;;;19.63;;
4272;SDS011;63887;53.656;9.810;2023-04-08T04:37:29;33.40;;;19.20;;
4272;SDS011;63887;53.656;9.810;2023-04-08T04:39:55;38.83;;;20.90;;
4272;SDS011;63887;53.656;9.810;2023-04-08T04:42:21;32.37;;;19.90;;
4272;SDS011;63887;53.656;9.810;2023-04-08T04:44:48;39.07;;;23.30;;
4272;SDS011;63887;53.656;9.810;2023-04-08T04:47:14;54.57;;;21.73;;
4272;SDS011;63887;53.656;9.810;2023-04-08T04:49:41;47.10;;;21.77;;
4272;SDS011;63887;53.656;9.810;2023-04-08T04:52:08;45.90;;;22.97;;
4272;SDS011;63887;53.656;9.810;2023-04-08T04:54:35;35.80;;;21.83;;
4272;SDS011;63887;53.656;9.810;2023-04-08T04:57:02;51.97;;;23.30;;
4272;SDS011;63887;53.656;9.810;2023-04-08T04:59:28;52.30;;;22.53;;
4272;SDS011;63887;53.656;9.810;2023-04-08T05:01:54;52.83;;;25.13;;
4272;SDS011;63887;53.656;9.810;2023-04-08T05:04:22;42.43;;;22.90;;
4272;SDS011;63887;53.656;9.810;2023-04-08T05:06:48;49.23;;;24.00;;
4272;SDS011;63887;53.656;9.810;2023-04-08T05:09:16;48.33;;;23.47;;
4272;SDS011;63887;53.656;9.810;2023-04-08T05:11:43;41.97;;;22.00;;
4272;SDS011;63887;53.656;9.810;2023-04-08T05:14:09;50.33;;;24.30;;
4272;SDS011;63887;53.656;9.810;2023-04-08T05:16:36;49.57;;;24.10;;
4272;SDS011;63887;53.656;9.810;2023-04-08T05:19:03;48.10;;;26.47;;
4272;SDS011;63887;53.656;9.810;2023-04-08T05:21:29;57.10;;;28.23;;
4272;SDS011;63887;53.656;9.810;2023-04-08T05:23:56;70.90;;;31.13;;
4272;SDS011;63887;53.656;9.810;2023-04-08T05:26:24;78.57;;;31.97;;
4272;SDS011;63887;53.656;9.810;2023-04-08T05:28:51;78.03;;;32.78;;
4272;SDS011;63887;53.656;9.810;2023-04-08T05:31:17;87.57;;;32.17;;
4272;SDS011;63887;53.656;9.810;2023-04-08T05:33:45;74.47;;;34.07;;
4272;SDS011;63887;53.656;9.810;2023-04-08T05:36:11;117.70;;;38.17;;
4272;SDS011;63887;53.656;9.810;2023-04-08T05:38:39;76.33;;;36.30;;
4272;SDS011;63887;53.656;9.810;2023-04-08T05:41:07;95.27;;;37.50;;
4272;SDS011;63887;53.656;9.810;2023-04-08T05:43:34;85.03;;;38.17;;
4272;SDS011;63887;53.656;9.810;2023-04-08T05:46:04;80.90;;;37.72;;
4272;SDS011;63887;53.656;9.810;2023-04-08T05:48:31;83.23;;;37.37;;
4272;SDS011;63887;53.656;9.810;2023-04-08T05:50:57;83.23;;;37.60;;
4272;SDS011;63887;53.656;9.810;2023-04-08T05:53:24;77.60;;;35.10;;
4272;SDS011;63887;53.656;9.810;2023-04-08T05:55:50;63.43;;;28.53;;
4272;SDS011;63887;53.656;9.810;2023-04-08T05:58:17;47.77;;;25.50;;
4272;SDS011;63887;53.656;9.810;2023-04-08T06:00:44;56.73;;;25.70;;
4272;SDS011;63887;53.656;9.810;2023-04-08T06:03:11;44.65;;;23.33;;
4272;SDS011;63887;53.656;9.810;2023-04-08T06:05:37;45.37;;;24.73;;
4272;SDS011;63887;53.656;9.810;2023-04-08T06:08:04;54.60;;;26.30;;
4272;SDS011;63887;53.656;9.810;2023-04-08T06:10:30;60.75;;;24.65;;
4272;SDS011;63887;53.656;9.810;2023-04-08T06:12:57;60.67;;;27.83;;
4272;SDS011;63887;53.656;9.810;2023-04-08T06:15:24;60.03;;;29.83;;
4272;SDS011;63887;53.656;9.810;2023-04-08T06:17:53;58.50;;;29.13;;
4272;SDS011;63887;53.656;9.810;2023-04-08T06:20:19;58.17;;;26.07;;
4272;SDS011;63887;53.656;9.810;2023-04-08T06:22:46;42.60;;;21.03;;
4272;SDS011;63887;53.656;9.810;2023-04-08T06:25:13;38.30;;;20.87;;
4272;SDS011;63887;53.656;9.810;2023-04-08T06:27:39;39.17;;;20.27;;
4272;SDS011;63887;53.656;9.810;2023-04-08T06:30:06;40.07;;;20.97;;
4272;SDS011;63887;53.656;9.810;2023-04-08T06:32:33;50.73;;;25.53;;
4272;SDS011;63887;53.656;9.810;2023-04-08T06:35:01;57.57;;;28.53;;
4272;SDS011;63887;53.656;9.810;2023-04-08T06:37:28;44.30;;;23.40;;
4272;SDS011;63887;53.656;9.810;2023-04-08T06:39:54;46.00;;;22.00;;
4272;SDS011;63887;53.656;9.810;2023-04-08T06:42:20;45.33;;;22.73;;
4272;SDS011;63887;53.656;9.810;2023-04-08T06:44:47;44.20;;;20.63;;
4272;SDS011;63887;53.656;9.810;2023-04-08T06:47:13;37.70;;;20.13;;
4272;SDS011;63887;53.656;9.810;2023-04-08T06:49:41;38.40;;;22.07;;
4272;SDS011;63887;53.656;9.810;2023-04-08T06:52:08;44.37;;;23.10;;
4272;SDS011;63887;53.656;9.810;2023-04-08T06:54:35;45.83;;;21.90;;
4272;SDS011;63887;53.656;9.810;2023-04-08T06:57:01;36.60;;;19.93;;
4272;SDS011;63887;53.656;9.810;2023-04-08T06:59:28;45.95;;;23.65;;
4272;SDS011;63887;53.656;9.810;2023-04-08T07:01:55;44.30;;;22.33;;
4272;SDS011;63887;53.656;9.810;2023-04-08T07:04:21;48.47;;;23.37;;
4272;SDS011;63887;53.656;9.810;2023-04-08T07:06:47;56.17;;;29.07;;
4272;SDS011;63887;53.656;9.810;2023-04-08T07:09:15;53.07;;;25.00;;
4272;SDS011;63887;53.656;9.810;2023-04-08T07:11:41;41.10;;;23.80;;
4272;SDS011;63887;53.656;9.810;2023-04-08T07:14:08;48.33;;;21.87;;
4272;SDS011;63887;53.656;9.810;2023-04-08T07:16:35;65.93;;;30.30;;
4272;SDS011;63887;53.656;9.810;2023-04-08T07:19:01;101.67;;;45.83;;
4272;SDS011;63887;53.656;9.810;2023-04-08T07:21:27;68.57;;;32.20;;
4272;SDS011;63887;53.656;9.810;2023-04-08T07:23:55;45.53;;;24.70;;
4272;SDS011;63887;53.656;9.810;2023-04-08T07:26:23;83.47;;;38.73;;
4272;SDS011;63887;53.656;9.810;2023-04-08T07:28:49;78.23;;;36.53;;
4272;SDS011;63887;53.656;9.810;2023-04-08T07:31:16;53.17;;;26.90;;
4272;SDS011;63887;53.656;9.810;2023-04-08T07:33:43;73.17;;;30.80;;
4272;SDS011;63887;53.656;9.810;2023-04-08T07:36:11;70.90;;;33.50;;
4272;SDS011;63887;53.656;9.810;2023-04-08T07:38:39;95.37;;;40.00;;
4272;SDS011;63887;53.656;9.810;2023-04-08T07:41:05;86.20;;;39.97;;
4272;SDS011;63887;53.656;9.810;2023-04-08T07:43:33;101.90;;;44.50;;
4272;SDS011;63887;53.656;9.810;2023-04-08T07:46:01;65.00;;;31.20;;
4272;SDS011;63887;53.656;9.810;2023-04-08T07:48:27;61.10;;;31.47;;
4272;SDS011;63887;53.656;9.810;2023-04-08T07:50:54;58.63;;;29.07;;
4272;SDS011;63887;53.656;9.810;2023-04-08T07:53:21;48.50;;;24.50;;
4272;SDS011;63887;53.656;9.810;2023-04-08T07:55:47;56.22;;;28.75;;
4272;SDS011;63887;53.656;9.810;2023-04-08T07:58:14;51.77;;;24.63;;
4272;SDS011;63887;53.656;9.810;2023-04-08T08:00:41;41.23;;;22.63;;
4272;SDS011;63887;53.656;9.810;2023-04-08T08:03:08;46.13;;;21.73;;
4272;SDS011;63887;53.656;9.810;2023-04-08T08:05:34;39.67;;;19.90;;
4272;SDS011;63887;53.656;9.810;2023-04-08T08:08:01;42.93;;;21.73;;
4272;SDS011;63887;53.656;9.810;2023-04-08T08:10:27;54.50;;;24.03;;
4272;SDS011;63887;53.656;9.810;2023-04-08T08:12:54;48.13;;;22.00;;
4272;SDS011;63887;53.656;9.810;2023-04-08T08:15:20;59.72;;;29.17;;
4272;SDS011;63887;53.656;9.810;2023-04-08T08:17:48;40.90;;;20.93;;
4272;SDS011;63887;53.656;9.810;2023-04-08T08:20:14;38.73;;;20.90;;
4272;SDS011;63887;53.656;9.810;2023-04-08T08:22:41;40.80;;;20.63;;
4272;SDS011;63887;53.656;9.810;2023-04-08T08:25:09;33.03;;;19.43;;
4272;SDS011;63887;53.656;9.810;2023-04-08T08:27:35;39.53;;;20.00;;
4272;SDS011;63887;53.656;9.810;2023-04-08T08:30:04;33.07;;;19.20;;
4272;SDS011;63887;53.656;9.810;2023-04-08T08:32:31;41.63;;;20.07;;
4272;SDS011;63887;53.656;9.810;2023-04-08T08:34:59;32.30;;;20.20;;
4272;SDS011;63887;53.656;9.810;2023-04-08T08:37:26;42.67;;;21.33;;
4272;SDS011;63887;53.656;9.810;2023-04-08T08:39:52;42.30;;;19.93;;
4272;SDS011;63887;53.656;9.810;2023-04-08T08:42:19;34.63;;;20.97;;
4272;SDS011;63887;53.656;9.810;2023-04-08T08:44:46;47.80;;;25.53;;
4272;SDS011;63887;53.656;9.810;2023-04-08T08:47:13;54.83;;;27.33;;
4272;SDS011;63887;53.656;9.810;2023-04-08T08:49:40;67.60;;;33.37;;
4272;SDS011;63887;53.656;9.810;2023-04-08T08:52:08;47.43;;;23.13;;
4272;SDS011;63887;53.656;9.810;2023-04-08T08:54:35;48.57;;;23.67;;
4272;SDS011;63887;53.656;9.810;2023-04-08T08:57:02;36.77;;;22.27;;
4272;SDS011;63887;53.656;9.810;2023-04-08T08:59:28;47.27;;;21.57;;
4272;SDS011;63887;53.656;9.810;2023-04-08T09:01:55;47.13;;;25.40;;
4272;SDS011;63887;53.656;9.810;2023-04-08T09:04:21;35.63;;;23.03;;
4272;SDS011;63887;53.656;9.810;2023-04-08T09:06:48;44.67;;;23.40;;
4272;SDS011;63887;53.656;9.810;2023-04-08T09:09:17;52.57;;;27.30;;
4272;SDS011;63887;53.656;9.810;2023-04-08T09:11:44;44.50;;;26.10;;
4272;SDS011;63887;53.656;9.810;2023-04-08T09:14:18;74.07;;;32.20;;
4272;SDS011;63887;53.656;9.810;2023-04-08T09:16:46;73.97;;;32.97;;
4272;SDS011;63887;53.656;9.810;2023-04-08T09:19:12;46.47;;;25.30;;
4272;SDS011;63887;53.656;9.810;2023-04-08T09:21:39;82.87;;;44.40;;
4272;SDS011;63887;53.656;9.810;2023-04-08T09:24:05;71.70;;;35.53;;
4272;SDS011;63887;53.656;9.810;2023-04-08T09:26:34;55.43;;;29.30;;
4272;SDS011;63887;53.656;9.810;2023-04-08T09:29:02;54.87;;;25.77;;
4272;SDS011;63887;53.656;9.810;2023-04-08T09:31:31;54.53;;;31.27;;
4272;SDS011;63887;53.656;9.810;2023-04-08T09:34:00;50.97;;;27.70;;
4272;SDS011;63887;53.656;9.810;2023-04-08T09:36:35;45.70;;;22.90;;
4272;SDS011;63887;53.656;9.810;2023-04-08T09:39:01;51.10;;;23.10;;
4272;SDS011;63887;53.656;9.810;2023-04-08T09:41:28;41.07;;;22.67;;
4272;SDS011;63887;53.656;9.810;2023-04-08T09:44:02;40.43;;;22.30;;
4272;SDS011;63887;53.656;9.810;2023-04-08T09:46:31;38.97;;;22.07;;
4272;SDS011;63887;53.656;9.810;2023-04-08T09:49:03;47.83;;;25.90;;
4272;SDS011;63887;53.656;9.810;2023-04-08T09:51:31;56.17;;;27.30;;
4272;SDS011;63887;53.656;9.810;2023-04-08T09:54:02;47.23;;;25.67;;
4272;SDS011;63887;53.656;9.810;2023-04-08T09:56:38;45.20;;;26.47;;
4272;SDS011;63887;53.656;9.810;2023-04-08T09:59:10;47.87;;;28.13;;
4272;SDS011;63887;53.656;9.810;2023-04-08T10:01:41;53.77;;;28.20;;
4272;SDS011;63887;53.656;9.810;2023-04-08T10:04:11;41.83;;;24.27;;
4272;SDS011;63887;53.656;9.810;2023-04-08T10:06:41;47.40;;;24.73;;
4272;SDS011;63887;53.656;9.810;2023-04-08T10:09:07;45.30;;;24.43;;
4272;SDS011;63887;53.656;9.810;2023-04-08T10:11:35;52.13;;;28.30;;
4272;SDS011;63887;53.656;9.810;2023-04-08T10:14:02;59.50;;;28.57;;
4272;SDS011;63887;53.656;9.810;2023-04-08T10:16:30;49.20;;;26.97;;
4272;SDS011;63887;53.656;9.810;2023-04-08T10:18:56;58.53;;;33.40;;
4272;SDS011;63887;53.656;9.810;2023-04-08T10:21:30;51.53;;;27.27;;
4272;SDS011;63887;53.656;9.810;2023-04-08T10:24:11;52.27;;;26.83;;
4272;SDS011;63887;53.656;9.810;2023-04-08T10:26:39;42.10;;;24.00;;
4272;SDS011;63887;53.656;9.810;2023-04-08T10:32:07;46.77;;;24.43;;
4272;SDS011;63887;53.656;9.810;2023-04-08T10:34:34;45.60;;;28.70;;
4272;SDS011;63887;53.656;9.810;2023-04-08T10:37:17;38.70;;;25.70;;
4272;SDS011;63887;53.656;9.810;2023-04-08T10:39:47;41.40;;;26.27;;
4272;SDS011;63887;53.656;9.810;2023-04-08T10:42:16;45.73;;;26.57;;
4272;SDS011;63887;53.656;9.810;2023-04-08T10:44:43;34.53;;;22.00;;
4272;SDS011;63887;53.656;9.810;2023-04-08T10:47:12;40.73;;;23.00;;
4272;SDS011;63887;53.656;9.810;2023-04-08T10:49:39;58.10;;;30.77;;
4272;SDS011;63887;53.656;9.810;2023-04-08T10:52:06;53.33;;;33.23;;
4272;SDS011;63887;53.656;9.810;2023-04-08T10:54:33;68.53;;;34.47;;
4272;SDS011;63887;53.656;9.810;2023-04-08T10:56:59;44.47;;;27.30;;
4272;SDS011;63887;53.656;9.810;2023-04-08T10:59:26;42.53;;;26.00;;
4272;SDS011;63887;53.656;9.810;2023-04-08T11:01:54;43.17;;;25.87;;
4272;SDS011;63887;53.656;9.810;2023-04-08T11:04:23;41.27;;;25.93;;
4272;SDS011;63887;53.656;9.810;2023-04-08T11:06:51;49.40;;;29.47;;
4272;SDS011;63887;53.656;9.810;2023-04-08T11:09:18;62.03;;;37.20;;
4272;SDS011;63887;53.656;9.810;2023-04-08T11:11:45;40.83;;;25.77;;
4272;SDS011;63887;53.656;9.810;2023-04-08T11:14:11;45.17;;;27.07;;
4272;SDS011;63887;53.656;9.810;2023-04-08T11:16:39;46.03;;;28.47;;
4272;SDS011;63887;53.656;9.810;2023-04-08T11:19:06;47.83;;;25.50;;
4272;SDS011;63887;53.656;9.810;2023-04-08T11:21:37;39.70;;;22.90;;
4272;SDS011;63887;53.656;9.810;2023-04-08T11:24:08;47.33;;;26.10;;
4272;SDS011;63887;53.656;9.810;2023-04-08T11:26:37;37.03;;;22.57;;
4272;SDS011;63887;53.656;9.810;2023-04-08T11:29:05;37.70;;;22.63;;
4272;SDS011;63887;53.656;9.810;2023-04-08T11:31:32;53.53;;;23.03;;
4272;SDS011;63887;53.656;9.810;2023-04-08T11:33:59;34.37;;;22.80;;
4272;SDS011;63887;53.656;9.810;2023-04-08T11:36:27;34.70;;;20.67;;
4272;SDS011;63887;53.656;9.810;2023-04-08T11:38:55;30.23;;;20.33;;
4272;SDS011;63887;53.656;9.810;2023-04-08T11:41:22;38.40;;;21.30;;
4272;SDS011;63887;53.656;9.810;2023-04-08T11:43:52;35.80;;;21.37;;
4272;SDS011;63887;53.656;9.810;2023-04-08T11:46:20;36.70;;;22.20;;
4272;SDS011;63887;53.656;9.810;2023-04-08T11:48:56;31.60;;;22.40;;
4272;SDS011;63887;53.656;9.810;2023-04-08T11:51:23;32.50;;;21.50;;
4272;SDS011;63887;53.656;9.810;2023-04-08T11:53:51;36.37;;;20.67;;
4272;SDS011;63887;53.656;9.810;2023-04-08T11:56:19;44.97;;;22.50;;
4272;SDS011;63887;53.656;9.810;2023-04-08T11:58:47;40.33;;;22.37;;
4272;SDS011;63887;53.656;9.810;2023-04-08T12:01:14;37.60;;;23.10;;
4272;SDS011;63887;53.656;9.810;2023-04-08T12:03:52;34.27;;;19.57;;
4272;SDS011;63887;53.656;9.810;2023-04-08T12:06:19;41.10;;;25.80;;
4272;SDS011;63887;53.656;9.810;2023-04-08T12:08:46;46.40;;;27.70;;
4272;SDS011;63887;53.656;9.810;2023-04-08T12:11:12;38.60;;;23.70;;
4272;SDS011;63887;53.656;9.810;2023-04-08T12:13:41;35.43;;;22.93;;
4272;SDS011;63887;53.656;9.810;2023-04-08T12:16:07;49.73;;;29.80;;
4272;SDS011;63887;53.656;9.810;2023-04-08T12:18:34;55.93;;;29.37;;
4272;SDS011;63887;53.656;9.810;2023-04-08T12:21:00;47.30;;;30.57;;
4272;SDS011;63887;53.656;9.810;2023-04-08T12:23:27;46.20;;;25.67;;
4272;SDS011;63887;53.656;9.810;2023-04-08T12:25:53;46.03;;;25.90;;
4272;SDS011;63887;53.656;9.810;2023-04-08T12:28:20;30.07;;;21.27;;
4272;SDS011;63887;53.656;9.810;2023-04-08T12:30:48;37.47;;;22.07;;
4272;SDS011;63887;53.656;9.810;2023-04-08T12:33:14;38.43;;;23.40;;
4272;SDS011;63887;53.656;9.810;2023-04-08T12:35:41;43.10;;;25.87;;
4272;SDS011;63887;53.656;9.810;2023-04-08T12:38:07;42.03;;;25.17;;
4272;SDS011;63887;53.656;9.810;2023-04-08T12:40:34;33.60;;;23.60;;
4272;SDS011;63887;53.656;9.810;2023-04-08T12:43:00;35.67;;;22.63;;
4272;SDS011;63887;53.656;9.810;2023-04-08T12:45:27;45.23;;;27.30;;
4272;SDS011;63887;53.656;9.810;2023-04-08T12:47:54;49.40;;;30.20;;
4272;SDS011;63887;53.656;9.810;2023-04-08T12:50:21;54.57;;;26.87;;
4272;SDS011;63887;53.656;9.810;2023-04-08T12:52:48;45.93;;;27.67;;
4272;SDS011;63887;53.656;9.810;2023-04-08T12:55:14;40.30;;;23.87;;
4272;SDS011;63887;53.656;9.810;2023-04-08T12:57:42;26.17;;;21.10;;
4272;SDS011;63887;53.656;9.810;2023-04-08T13:00:09;34.20;;;22.57;;
4272;SDS011;63887;53.656;9.810;2023-04-08T13:02:36;28.67;;;18.93;;
4272;SDS011;63887;53.656;9.810;2023-04-08T13:05:04;30.83;;;20.40;;
4272;SDS011;63887;53.656;9.810;2023-04-08T13:07:30;32.37;;;22.27;;
4272;SDS011;63887;53.656;9.810;2023-04-08T13:09:57;26.70;;;20.20;;
4272;SDS011;63887;53.656;9.810;2023-04-08T13:12:23;34.50;;;22.50;;
4272;SDS011;63887;53.656;9.810;2023-04-08T13:14:50;33.90;;;21.30;;
4272;SDS011;63887;53.656;9.810;2023-04-08T13:17:16;31.43;;;21.70;;
4272;SDS011;63887;53.656;9.810;2023-04-08T13:19:43;33.50;;;22.83;;
4272;SDS011;63887;53.656;9.810;2023-04-08T13:22:11;39.47;;;24.60;;
4272;SDS011;63887;53.656;9.810;2023-04-08T13:24:38;42.67;;;26.20;;
4272;SDS011;63887;53.656;9.810;2023-04-08T13:27:04;60.13;;;33.40;;
4272;SDS011;63887;53.656;9.810;2023-04-08T13:29:31;32.77;;;22.33;;
4272;SDS011;63887;53.656;9.810;2023-04-08T13:31:57;38.13;;;21.33;;
4272;SDS011;63887;53.656;9.810;2023-04-08T13:34:25;36.03;;;21.80;;
4272;SDS011;63887;53.656;9.810;2023-04-08T13:36:52;37.27;;;23.90;;
4272;SDS011;63887;53.656;9.810;2023-04-08T13:39:19;40.13;;;23.47;;
4272;SDS011;63887;53.656;9.810;2023-04-08T13:41:46;29.77;;;21.90;;
4272;SDS011;63887;53.656;9.810;2023-04-08T13:44:13;36.30;;;23.70;;
4272;SDS011;63887;53.656;9.810;2023-04-08T13:46:39;44.23;;;22.07;;
4272;SDS011;63887;53.656;9.810;2023-04-08T13:49:06;37.63;;;23.33;;
4272;SDS011;63887;53.656;9.810;2023-04-08T13:51:33;34.90;;;23.17;;
4272;SDS011;63887;53.656;9.810;2023-04-08T13:54:00;42.00;;;25.50;;
4272;SDS011;63887;53.656;9.810;2023-04-08T13:56:27;43.30;;;24.80;;
4272;SDS011;63887;53.656;9.810;2023-04-08T13:58:54;48.67;;;27.27;;
4272;SDS011;63887;53.656;9.810;2023-04-08T14:01:20;34.70;;;23.37;;
4272;SDS011;63887;53.656;9.810;2023-04-08T14:03:47;35.57;;;23.57;;
4272;SDS011;63887;53.656;9.810;2023-04-08T14:06:14;44.50;;;26.20;;
4272;SDS011;63887;53.656;9.810;2023-04-08T14:08:40;41.00;;;28.63;;
4272;SDS011;63887;53.656;9.810;2023-04-08T14:11:07;41.00;;;26.00;;
4272;SDS011;63887;53.656;9.810;2023-04-08T14:13:35;35.33;;;23.43;;
4272;SDS011;63887;53.656;9.810;2023-04-08T14:16:01;38.80;;;25.77;;
4272;SDS011;63887;53.656;9.810;2023-04-08T14:18:27;44.93;;;25.03;;
4272;SDS011;63887;53.656;9.810;2023-04-08T14:20:54;42.43;;;25.27;;
4272;SDS011;63887;53.656;9.810;2023-04-08T14:23:21;41.23;;;29.13;;
4272;SDS011;63887;53.656;9.810;2023-04-08T14:25:47;48.00;;;27.00;;
4272;SDS011;63887;53.656;9.810;2023-04-08T14:28:14;52.77;;;27.80;;
4272;SDS011;63887;53.656;9.810;2023-04-08T14:30:42;43.63;;;27.90;;
4272;SDS011;63887;53.656;9.810;2023-04-08T14:33:08;33.57;;;23.00;;
4272;SDS011;63887;53.656;9.810;2023-04-08T14:35:34;37.43;;;26.23;;
4272;SDS011;63887;53.656;9.810;2023-04-08T14:38:01;46.30;;;26.83;;